Hector International Airport Fargo US
ICAO: KFAR
IATA: FAR
Category: Medium
Scheduled Services: Yes

Elevation: 902 ft
TransAlt. 18000 ft.

Airport Communications:
FARGO APP/DEP:120.4
ATIS:124.5
GND/CLNC DEL:121.9
GRAND FORKS RDO:122.425
FARGO TWR:133.8
UNICOM:122.95

KFAR Zoom In..

Runways:

(A) RW 09 length 6302 ft width 100 ft
---- / hdg 86

(B) RW 13 length 3801 ft width 75 ft
---- / hdg 133

(C) RW 18 length 9001 ft width 150 ft
ILS 108.90 / hdg 176

(D) RW 27 length 6302 ft width 100 ft
---- / hdg 266

(E) RW 31 length 3801 ft width 75 ft
---- / hdg 313

(F) RW 36 length 9001 ft width 150 ft
ILS 110.30 / hdg 356

Location; KFAR
Day. 24 / Time. 07.53 Zulu
* Altimeter: 29.86
* Temperature: 23° c. 73.4°f.
* Wind from: 160° Speed 14 kn with Gusts up to 23 kn.
Dewpoint: 18° c.
Visibility: 10 Statute Miles.
Clouds: Clear (automated report).

KFAR 240753Z 16014G23KT 10SM CLR 23/18 A2986 RMK AO2 SLP108 T02280178


Wind From 160°
Speed 14 kn.

 
 
jpsmedia.com for Web Design SOUNDCLOUD worldairports.se 2018   terms of use